createdAt,value
2018-12-21T00:00:47.071Z,1.80
2018-12-21T00:02:28.857Z,1.80
2018-12-21T00:04:04.460Z,3.00
2018-12-21T00:05:41.194Z,3.00
2018-12-21T00:07:16.768Z,1.00
2018-12-21T00:08:57.787Z,1.40
2018-12-21T00:10:36.523Z,4.00
2018-12-21T00:12:21.571Z,1.40
2018-12-21T00:14:00.283Z,2.60
2018-12-21T00:15:38.609Z,3.00
2018-12-21T00:17:17.172Z,1.40
2018-12-21T00:18:53.363Z,3.00
2018-12-21T00:20:28.223Z,0.80
2018-12-21T00:22:03.785Z,0.00
2018-12-21T00:23:40.366Z,1.40
2018-12-21T00:25:15.892Z,1.00
2018-12-21T00:26:51.170Z,1.00
2018-12-21T00:28:26.253Z,3.00
2018-12-21T00:30:03.624Z,0.00
2018-12-21T00:31:43.525Z,1.00
2018-12-21T00:33:24.452Z,3.00
2018-12-21T00:35:06.582Z,1.00
2018-12-21T00:36:46.978Z,1.40
2018-12-21T00:38:29.204Z,0.60
2018-12-21T00:40:10.004Z,3.00
2018-12-21T00:41:46.141Z,1.00
2018-12-21T00:43:28.919Z,3.00
2018-12-21T00:45:12.386Z,2.60
2018-12-21T00:46:51.166Z,1.00
2018-12-21T00:48:26.839Z,3.00
2018-12-21T00:50:04.572Z,0.20
2018-12-21T00:51:40.480Z,2.20
2018-12-21T00:53:16.364Z,2.60
2018-12-21T00:54:53.041Z,3.00
2018-12-21T00:56:29.479Z,0.00
2018-12-21T00:58:07.261Z,3.00
2018-12-21T00:59:43.727Z,3.00
2018-12-21T01:01:19.662Z,1.00
2018-12-21T01:02:55.401Z,3.00
2018-12-21T01:04:35.867Z,3.00
2018-12-21T01:06:11.214Z,0.00
2018-12-21T01:07:46.256Z,0.80
2018-12-21T01:09:24.259Z,1.00
2018-12-21T01:10:59.896Z,3.00
2018-12-21T01:12:35.466Z,1.00
2018-12-21T01:14:11.198Z,2.20
2018-12-21T01:15:46.478Z,1.40
2018-12-21T01:17:22.121Z,1.00
2018-12-21T01:18:57.848Z,0.00
2018-12-21T01:20:33.383Z,0.80
2018-12-21T01:22:09.062Z,3.00
2018-12-21T01:23:44.579Z,1.00
2018-12-21T01:25:19.615Z,1.00
2018-12-21T01:26:54.634Z,3.80
2018-12-21T01:28:32.468Z,1.00
2018-12-21T01:30:09.755Z,0.00
2018-12-21T01:31:46.111Z,1.00
2018-12-21T01:33:22.368Z,1.00
2018-12-21T01:34:58.247Z,0.40
2018-12-21T01:36:37.609Z,3.00
2018-12-21T01:38:13.144Z,2.60
2018-12-21T01:39:48.769Z,3.00
2018-12-21T01:41:26.564Z,1.00
2018-12-21T01:43:02.054Z,0.60
2018-12-21T01:44:38.834Z,1.80
2018-12-21T01:46:15.884Z,3.00
2018-12-21T01:47:52.854Z,1.00
2018-12-21T01:49:28.878Z,1.00
2018-12-21T01:51:05.575Z,1.00
2018-12-21T01:52:41.255Z,1.00
2018-12-21T01:54:16.379Z,1.00
2018-12-21T01:55:52.563Z,1.00
2018-12-21T01:57:29.737Z,1.00
2018-12-21T01:59:06.191Z,2.20
2018-12-21T02:00:42.354Z,1.40
2018-12-21T02:02:18.513Z,1.00
2018-12-21T02:03:53.687Z,1.00
2018-12-21T02:05:32.565Z,1.00
2018-12-21T02:07:07.559Z,1.00
2018-12-21T02:08:44.993Z,0.40
2018-12-21T02:10:21.732Z,1.00
2018-12-21T02:11:59.360Z,1.00
2018-12-21T02:13:36.317Z,0.80
2018-12-21T02:15:14.754Z,0.60
2018-12-21T02:16:50.826Z,1.00
2018-12-21T02:18:27.652Z,1.00
2018-12-21T02:20:03.935Z,2.20
2018-12-21T02:21:40.976Z,1.00
2018-12-21T02:23:19.228Z,1.00
2018-12-21T02:24:55.227Z,1.00
2018-12-21T02:26:31.000Z,0.40
2018-12-21T02:28:08.826Z,2.60
2018-12-21T02:29:45.150Z,0.00
2018-12-21T02:31:21.463Z,0.80
2018-12-21T02:32:57.251Z,1.00
2018-12-21T02:34:32.443Z,3.00
2018-12-21T02:36:07.517Z,1.00
2018-12-21T02:37:43.884Z,3.00
2018-12-21T02:39:20.190Z,1.40
2018-12-21T02:40:57.411Z,1.00
2018-12-21T02:42:33.274Z,1.00
2018-12-21T02:44:08.527Z,0.20
2018-12-21T02:45:43.476Z,0.80
2018-12-21T02:47:20.301Z,0.00
2018-12-21T02:48:56.684Z,0.00
2018-12-21T02:50:32.057Z,1.00
2018-12-21T02:52:08.142Z,1.00
2018-12-21T02:53:44.583Z,3.00
2018-12-21T02:55:20.214Z,1.80
2018-12-21T02:56:58.965Z,0.60
2018-12-21T02:58:36.245Z,2.60
2018-12-21T03:00:13.545Z,0.60
2018-12-21T03:01:49.827Z,0.00
2018-12-21T03:03:30.794Z,1.00
2018-12-21T03:05:06.057Z,1.80
2018-12-21T03:06:41.026Z,1.00
2018-12-21T03:08:16.457Z,3.00
2018-12-21T03:09:52.917Z,1.00
2018-12-21T03:11:28.465Z,3.00
2018-12-21T03:13:03.753Z,1.00
2018-12-21T03:14:40.203Z,1.00
2018-12-21T03:16:15.687Z,1.40
2018-12-21T03:17:51.448Z,2.60
2018-12-21T03:19:29.282Z,0.00
2018-12-21T03:21:04.358Z,1.00
2018-12-21T03:22:39.513Z,3.00
2018-12-21T03:24:15.675Z,1.00
2018-12-21T03:25:54.419Z,1.40
2018-12-21T03:27:29.413Z,1.00
2018-12-21T03:29:05.444Z,3.00
2018-12-21T03:30:40.897Z,1.00
2018-12-21T03:32:16.084Z,3.00
2018-12-21T03:33:53.958Z,2.20
2018-12-21T03:35:29.156Z,1.00
2018-12-21T03:37:04.318Z,2.60
2018-12-21T03:38:39.446Z,1.00
2018-12-21T03:40:14.753Z,2.80
2018-12-21T03:41:49.527Z,1.00
2018-12-21T03:43:24.687Z,1.00
2018-12-21T03:44:59.475Z,3.20
2018-12-21T03:46:34.290Z,3.00
2018-12-21T03:48:09.126Z,3.00
2018-12-21T03:49:43.955Z,1.00
2018-12-21T03:52:52.067Z,3.60
2018-12-21T03:54:27.363Z,3.60
2018-12-21T03:56:02.250Z,3.00
2018-12-21T03:57:37.190Z,1.80
2018-12-21T03:59:12.368Z,0.60
2018-12-21T04:00:47.472Z,3.00
2018-12-21T04:02:23.084Z,2.20
2018-12-21T04:04:00.138Z,3.20
2018-12-21T04:05:35.435Z,4.00
2018-12-21T04:07:11.067Z,4.00
2018-12-21T04:08:46.606Z,3.00
2018-12-21T04:10:21.991Z,2.20
2018-12-21T04:11:56.887Z,0.80
2018-12-21T04:13:31.868Z,4.00
2018-12-21T04:15:08.990Z,3.20
2018-12-21T04:16:44.233Z,3.00
2018-12-21T04:18:19.792Z,3.00
2018-12-21T04:19:54.771Z,1.00
2018-12-21T04:21:29.867Z,3.40
2018-12-21T04:23:05.021Z,3.20
2018-12-21T04:24:40.246Z,5.60
2018-12-21T04:26:15.443Z,3.40
2018-12-21T04:27:51.275Z,3.00
2018-12-21T04:29:27.671Z,3.20
2018-12-21T04:31:04.598Z,1.80
2018-12-21T04:32:40.446Z,3.00
2018-12-21T04:34:17.381Z,1.00
2018-12-21T04:35:53.682Z,4.40
2018-12-21T04:37:29.220Z,1.00
2018-12-21T04:39:05.185Z,1.00
2018-12-21T04:40:40.236Z,4.20
2018-12-21T04:42:15.307Z,6.00
2018-12-21T04:43:50.464Z,4.00
2018-12-21T04:45:25.774Z,3.00
2018-12-21T04:47:00.860Z,1.00
2018-12-21T04:48:36.297Z,3.00
2018-12-21T04:50:11.511Z,1.00
2018-12-21T04:51:46.320Z,1.80
2018-12-21T04:53:21.116Z,3.20
2018-12-21T04:54:55.864Z,1.80
2018-12-21T04:56:30.963Z,3.60
2018-12-21T04:58:05.950Z,3.00
2018-12-21T04:59:40.752Z,2.60
2018-12-21T05:01:15.479Z,1.00
2018-12-21T05:02:50.245Z,1.00
2018-12-21T05:04:41.679Z,1.00
2018-12-21T05:06:16.432Z,3.00
2018-12-21T05:07:51.174Z,3.60
2018-12-21T05:09:25.928Z,0.20
2018-12-21T05:11:00.954Z,1.00
2018-12-21T05:12:42.319Z,3.00
2018-12-21T05:14:17.056Z,2.60
2018-12-21T05:15:52.047Z,2.20
2018-12-21T05:17:26.816Z,3.20
2018-12-21T05:19:01.576Z,2.20
2018-12-21T05:20:36.417Z,1.80
2018-12-21T05:22:11.259Z,3.00
2018-12-21T05:23:46.431Z,1.00
2018-12-21T05:25:21.494Z,1.00
2018-12-21T05:27:07.290Z,1.00
2018-12-21T05:28:43.740Z,3.00
2018-12-21T05:30:19.241Z,1.00
2018-12-21T05:31:54.278Z,1.80
2018-12-21T05:33:29.291Z,1.00
2018-12-21T05:35:05.716Z,1.00
2018-12-21T05:36:40.691Z,1.00
2018-12-21T05:38:16.149Z,1.00
2018-12-21T05:39:52.223Z,3.00
2018-12-21T05:41:27.811Z,1.00
2018-12-21T05:43:02.764Z,1.00
2018-12-21T05:44:38.051Z,3.00
2018-12-21T05:46:13.031Z,3.00
2018-12-21T05:47:48.544Z,1.00
2018-12-21T05:49:23.586Z,1.40
2018-12-21T05:50:58.895Z,3.00
2018-12-21T05:52:34.831Z,1.80
2018-12-21T05:54:10.247Z,1.80
2018-12-21T05:55:45.309Z,1.00
2018-12-21T05:57:20.585Z,1.00
2018-12-21T05:58:55.767Z,1.40
2018-12-21T06:00:30.906Z,0.00
2018-12-21T06:02:06.476Z,1.00
2018-12-21T06:03:41.655Z,1.00
2018-12-21T06:05:16.459Z,1.00
2018-12-21T06:06:51.303Z,0.80
2018-12-21T06:08:26.214Z,1.00
2018-12-21T06:10:02.532Z,1.00
2018-12-21T06:11:38.242Z,1.00
2018-12-21T06:13:15.083Z,1.00
2018-12-21T06:14:49.927Z,1.00
2018-12-21T06:16:25.257Z,1.00
2018-12-21T06:18:01.645Z,0.00
2018-12-21T06:19:38.332Z,1.00
2018-12-21T06:21:13.296Z,0.00
2018-12-21T06:22:50.339Z,1.80
2018-12-21T06:24:30.616Z,0.00
2018-12-21T06:26:05.753Z,0.00
2018-12-21T06:27:44.016Z,0.20
2018-12-21T06:29:19.005Z,0.00
2018-12-21T06:30:55.090Z,0.00
2018-12-21T06:32:29.983Z,0.00
2018-12-21T06:34:06.461Z,0.80
2018-12-21T06:35:43.059Z,0.00
2018-12-21T06:37:18.523Z,0.00
2018-12-21T06:38:58.513Z,0.00
2018-12-21T06:40:34.436Z,0.00
2018-12-21T06:42:09.276Z,0.40
2018-12-21T06:43:44.539Z,0.00
2018-12-21T06:45:20.155Z,0.00
2018-12-21T06:46:55.755Z,5.40
2018-12-21T06:48:30.603Z,4.00
2018-12-21T06:50:05.923Z,0.00
2018-12-21T06:51:40.963Z,3.40
2018-12-21T06:53:18.341Z,0.00
2018-12-21T06:54:53.380Z,1.80
2018-12-21T06:56:30.470Z,0.00
2018-12-21T06:58:05.648Z,0.00
2018-12-21T06:59:41.655Z,0.00
2018-12-21T07:01:21.654Z,0.00
2018-12-21T07:02:56.387Z,1.00
2018-12-21T07:04:31.438Z,1.00
2018-12-21T07:06:07.771Z,0.40
2018-12-21T07:07:43.803Z,1.00
2018-12-21T07:09:19.368Z,0.00
2018-12-21T07:10:55.133Z,0.60
2018-12-21T07:12:34.562Z,1.60
2018-12-21T07:14:09.450Z,2.60
2018-12-21T07:15:44.490Z,1.00
2018-12-21T07:17:19.840Z,1.40
2018-12-21T07:18:56.208Z,0.00
2018-12-21T07:20:32.631Z,0.20
2018-12-21T07:22:07.466Z,0.00
2018-12-21T07:23:42.363Z,0.00
2018-12-21T07:25:17.257Z,0.40
2018-12-21T07:26:52.120Z,1.00
2018-12-21T07:28:28.912Z,6.80
2018-12-21T07:30:05.285Z,1.00
2018-12-21T07:31:42.412Z,1.00
2018-12-21T07:33:18.503Z,0.20
2018-12-21T07:34:54.666Z,0.40
2018-12-21T07:36:30.730Z,0.00
2018-12-21T07:38:05.752Z,0.40
2018-12-21T07:39:40.879Z,0.00
2018-12-21T07:41:16.325Z,2.60
2018-12-21T07:42:51.659Z,3.80
2018-12-21T07:44:31.573Z,1.00
2018-12-21T07:46:06.736Z,1.00
2018-12-21T07:47:42.289Z,0.00
2018-12-21T07:49:18.747Z,0.00
2018-12-21T07:50:55.296Z,0.60
2018-12-21T07:52:30.377Z,1.00
2018-12-21T07:54:05.740Z,1.00
2018-12-21T07:55:41.105Z,1.00
2018-12-21T07:57:16.266Z,0.00
2018-12-21T07:58:57.166Z,3.60
2018-12-21T08:00:30.458Z,0.40
2018-12-21T08:02:06.949Z,0.80
2018-12-21T08:03:42.776Z,0.00
2018-12-21T08:05:18.681Z,0.00
2018-12-21T08:06:53.733Z,0.60
2018-12-21T08:08:32.666Z,1.00
2018-12-21T08:10:13.313Z,1.00
2018-12-21T08:11:49.307Z,0.00
2018-12-21T08:13:28.708Z,0.00
2018-12-21T08:15:09.406Z,0.00
2018-12-21T08:16:48.025Z,0.00
2018-12-21T08:18:27.062Z,0.00
2018-12-21T08:20:02.729Z,0.00
2018-12-21T08:21:41.028Z,0.00
2018-12-21T08:23:17.302Z,0.00
2018-12-21T08:24:52.874Z,0.00
2018-12-21T08:26:30.866Z,0.80
2018-12-21T08:28:06.157Z,0.20
2018-12-21T08:29:41.702Z,0.80
2018-12-21T08:31:17.032Z,0.00
2018-12-21T08:32:52.448Z,0.80
2018-12-21T08:34:29.311Z,0.80
2018-12-21T08:36:04.789Z,0.00
2018-12-21T08:37:40.218Z,0.00
2018-12-21T08:39:15.388Z,0.00
2018-12-21T08:40:50.392Z,0.00
2018-12-21T08:42:26.867Z,0.00
2018-12-21T08:44:02.996Z,1.00
2018-12-21T08:45:38.374Z,0.00
2018-12-21T08:47:14.658Z,1.00
2018-12-21T08:48:50.572Z,0.00
2018-12-21T08:50:25.630Z,0.40
2018-12-21T08:52:01.035Z,0.00
2018-12-21T08:53:36.164Z,0.00
2018-12-21T08:55:19.112Z,1.00
2018-12-21T08:56:54.370Z,0.00
2018-12-21T08:58:29.995Z,0.00
2018-12-21T09:00:08.068Z,0.40
2018-12-21T09:01:44.424Z,0.80
2018-12-21T09:03:20.540Z,1.00
2018-12-21T09:04:56.701Z,0.00
2018-12-21T09:06:32.615Z,1.00
2018-12-21T09:08:09.506Z,0.00
2018-12-21T09:09:45.585Z,0.00
2018-12-21T09:11:21.262Z,0.00
2018-12-21T09:12:56.960Z,0.00
2018-12-21T09:14:32.397Z,0.00
2018-12-21T09:16:08.332Z,0.00
2018-12-21T09:17:49.112Z,0.00
2018-12-21T09:19:33.082Z,0.00
2018-12-21T09:21:33.217Z,0.00
2018-12-21T09:23:13.814Z,0.00
2018-12-21T09:24:49.475Z,0.00
2018-12-21T09:26:26.095Z,0.00
2018-12-21T09:28:03.622Z,0.00
2018-12-21T09:29:39.127Z,0.00
2018-12-21T09:31:15.830Z,0.00
2018-12-21T09:32:52.053Z,0.00
2018-12-21T09:34:29.917Z,0.00
2018-12-21T09:36:05.821Z,0.00
2018-12-21T09:37:41.648Z,0.00
2018-12-21T09:39:18.304Z,0.00
2018-12-21T09:40:54.173Z,0.00
2018-12-21T09:42:30.022Z,0.00
2018-12-21T09:44:08.345Z,0.00
2018-12-21T09:45:43.984Z,0.00
2018-12-21T09:47:22.113Z,0.00
2018-12-21T09:48:58.341Z,0.00
2018-12-21T09:50:39.489Z,0.40
2018-12-21T09:52:15.971Z,0.00
2018-12-21T09:53:51.752Z,0.00
2018-12-21T09:55:28.466Z,0.00
2018-12-21T09:57:08.888Z,0.00
2018-12-21T09:58:49.382Z,0.00
2018-12-21T10:00:33.998Z,0.00
2018-12-21T10:02:11.211Z,0.00
2018-12-21T10:03:47.777Z,0.00
2018-12-21T10:05:27.714Z,0.00
2018-12-21T10:07:04.268Z,0.00
2018-12-21T10:08:39.835Z,0.00
2018-12-21T10:10:20.217Z,0.00
2018-12-21T10:11:55.585Z,0.00
2018-12-21T10:13:32.904Z,0.00
2018-12-21T10:15:10.330Z,0.00
2018-12-21T10:16:46.474Z,0.00
2018-12-21T10:18:23.298Z,0.00
2018-12-21T10:20:03.825Z,0.00
2018-12-21T10:21:41.517Z,0.00
2018-12-21T10:23:22.071Z,0.00
2018-12-21T10:24:57.536Z,0.00
2018-12-21T10:26:34.432Z,0.00
2018-12-21T10:28:10.877Z,0.00
2018-12-21T10:29:46.004Z,0.00
2018-12-21T10:31:25.280Z,0.00
2018-12-21T10:33:02.532Z,0.00
2018-12-21T10:34:38.840Z,0.00
2018-12-21T10:36:16.425Z,0.00
2018-12-21T10:37:55.248Z,0.00
2018-12-21T10:39:32.487Z,0.00
2018-12-21T10:41:10.006Z,0.00
2018-12-21T10:42:46.634Z,0.00
2018-12-21T10:44:21.968Z,0.00
2018-12-21T10:45:57.992Z,0.00
2018-12-21T10:47:34.551Z,0.00
2018-12-21T10:49:09.897Z,0.00
2018-12-21T10:50:47.105Z,0.00
2018-12-21T10:52:23.051Z,0.00
2018-12-21T10:54:11.644Z,0.00
2018-12-21T10:55:48.685Z,0.00
2018-12-21T10:57:25.759Z,0.00
2018-12-21T10:59:00.955Z,0.00
2018-12-21T11:00:40.169Z,0.00
2018-12-21T11:02:15.560Z,0.00
2018-12-21T11:03:51.120Z,0.20
2018-12-21T11:05:27.228Z,0.00
2018-12-21T11:07:03.050Z,0.00
2018-12-21T11:08:40.455Z,0.00
2018-12-21T11:10:16.406Z,0.00
2018-12-21T11:11:54.253Z,0.00
2018-12-21T11:13:31.717Z,0.00
2018-12-21T11:15:08.929Z,0.00
2018-12-21T11:16:46.017Z,0.00
2018-12-21T11:18:21.182Z,0.00
2018-12-21T11:20:02.230Z,0.00
2018-12-21T11:21:38.431Z,0.00
2018-12-21T11:23:16.189Z,0.00
2018-12-21T11:24:52.164Z,0.00
2018-12-21T11:26:29.342Z,0.00
2018-12-21T11:28:05.432Z,0.00
2018-12-21T11:29:41.884Z,0.00
2018-12-21T11:31:19.213Z,0.40
2018-12-21T11:32:54.309Z,0.00
2018-12-21T11:34:30.438Z,1.00
2018-12-21T11:36:07.357Z,0.00
2018-12-21T11:37:44.479Z,0.00
2018-12-21T11:39:21.725Z,0.00
2018-12-21T11:40:57.730Z,0.00
2018-12-21T11:42:33.267Z,0.00
2018-12-21T11:44:16.710Z,0.00
2018-12-21T11:45:59.180Z,3.40
2018-12-21T11:47:36.846Z,0.40
2018-12-21T11:49:15.146Z,0.00
2018-12-21T11:50:50.846Z,0.00
2018-12-21T11:52:30.104Z,0.00
2018-12-21T11:54:05.550Z,3.00
2018-12-21T11:55:41.406Z,0.20
2018-12-21T11:57:17.839Z,1.00
2018-12-21T11:58:54.984Z,0.80
2018-12-21T12:00:30.980Z,0.00
2018-12-21T12:02:19.320Z,0.20
2018-12-21T12:04:05.388Z,0.20
2018-12-21T12:05:43.811Z,0.00
2018-12-21T12:07:19.227Z,0.00
2018-12-21T12:09:06.145Z,1.00
2018-12-21T12:10:39.979Z,1.00
2018-12-21T12:12:15.967Z,1.00
2018-12-21T12:13:52.097Z,1.40
2018-12-21T12:15:29.306Z,0.00
2018-12-21T12:17:08.448Z,0.80
2018-12-21T12:18:43.567Z,1.00
2018-12-21T12:20:20.945Z,1.00
2018-12-21T12:21:56.327Z,0.20
2018-12-21T12:23:31.433Z,0.40
2018-12-21T12:25:07.244Z,1.00
2018-12-21T12:26:44.486Z,3.00
2018-12-21T12:28:19.887Z,0.00
2018-12-21T12:29:57.034Z,1.00
2018-12-21T12:31:33.985Z,1.00
2018-12-21T12:33:10.702Z,0.00
2018-12-21T12:34:48.380Z,0.00
2018-12-21T12:36:26.195Z,1.00
2018-12-21T12:38:03.098Z,1.00
2018-12-21T12:39:39.209Z,1.00
2018-12-21T12:41:15.434Z,3.00
2018-12-21T12:42:54.793Z,1.80
2018-12-21T12:44:31.800Z,1.00
2018-12-21T12:46:08.293Z,0.20
2018-12-21T12:47:51.518Z,1.80
2018-12-21T12:49:27.972Z,1.00
2018-12-21T12:51:08.559Z,1.00
2018-12-21T12:52:51.680Z,0.40
2018-12-21T12:54:27.559Z,1.40
2018-12-21T12:56:05.375Z,1.00
2018-12-21T12:57:45.126Z,1.00
2018-12-21T12:59:22.489Z,3.00
2018-12-21T13:00:58.033Z,0.00
2018-12-21T13:02:34.568Z,0.80
2018-12-21T13:04:11.344Z,0.00
2018-12-21T13:05:47.206Z,0.80
2018-12-21T13:07:27.211Z,1.00
2018-12-21T13:09:10.696Z,1.00
2018-12-21T13:10:45.888Z,3.00
2018-12-21T13:12:23.300Z,1.00
2018-12-21T13:14:01.345Z,1.00
2018-12-21T13:15:38.474Z,0.60
2018-12-21T13:17:24.185Z,1.00
2018-12-21T13:19:01.209Z,0.00
2018-12-21T13:20:38.562Z,0.60
2018-12-21T13:22:16.764Z,1.00
2018-12-21T13:23:52.494Z,0.00
2018-12-21T13:25:28.387Z,0.00
2018-12-21T13:27:05.883Z,0.00
2018-12-21T13:28:42.372Z,0.00
2018-12-21T13:30:20.296Z,0.80
2018-12-21T13:31:55.359Z,0.80
2018-12-21T13:33:33.491Z,0.60
2018-12-21T13:35:19.671Z,0.40
2018-12-21T13:37:05.565Z,0.00
2018-12-21T13:38:43.685Z,0.60
2018-12-21T13:40:19.228Z,1.00
2018-12-21T13:41:55.257Z,1.00
2018-12-21T13:43:32.120Z,1.00
2018-12-21T13:45:13.314Z,2.20
2018-12-21T13:46:50.611Z,3.00
2018-12-21T13:48:27.181Z,1.80
2018-12-21T13:50:06.415Z,2.60
2018-12-21T13:51:45.618Z,1.00
2018-12-21T13:53:22.705Z,0.00
2018-12-21T13:54:58.416Z,1.00
2018-12-21T13:56:37.127Z,3.00
2018-12-21T13:58:14.258Z,1.40
2018-12-21T13:59:50.888Z,3.00
2018-12-21T14:01:27.798Z,0.00
2018-12-21T14:03:09.849Z,1.40
2018-12-21T14:04:45.110Z,2.20
2018-12-21T14:06:20.674Z,1.00
2018-12-21T14:07:56.949Z,0.00
2018-12-21T14:09:33.019Z,0.20
2018-12-21T14:11:10.266Z,1.00
2018-12-21T14:12:47.322Z,1.00
2018-12-21T14:14:22.421Z,0.80
2018-12-21T14:15:57.464Z,2.20
2018-12-21T14:17:32.797Z,3.00
2018-12-21T14:19:09.414Z,4.60
2018-12-21T14:20:48.868Z,1.00
2018-12-21T14:22:38.323Z,1.00
2018-12-21T14:24:21.194Z,0.60
2018-12-21T14:26:05.620Z,2.60
2018-12-21T14:27:43.744Z,1.00
2018-12-21T14:29:27.704Z,0.00
2018-12-21T14:31:22.424Z,3.40
2018-12-21T14:32:59.249Z,3.00
2018-12-21T14:34:41.321Z,0.00
2018-12-21T14:36:20.842Z,0.00
2018-12-21T14:38:00.726Z,4.00
2018-12-21T14:39:36.600Z,1.80
2018-12-21T14:41:13.935Z,3.60
2018-12-21T14:42:56.019Z,1.80
2018-12-21T14:44:32.553Z,4.00
2018-12-21T14:46:11.473Z,6.80
2018-12-21T14:47:51.327Z,3.40
2018-12-21T14:49:33.012Z,6.00
2018-12-21T14:51:08.377Z,3.80
2018-12-21T14:52:45.223Z,4.00
2018-12-21T14:54:20.667Z,4.00
2018-12-21T14:55:57.173Z,5.20
2018-12-21T14:57:38.011Z,4.00
2018-12-21T14:59:15.449Z,3.00
2018-12-21T15:01:03.790Z,4.80
2018-12-21T15:02:50.404Z,10.00
2018-12-21T15:04:36.837Z,5.60
2018-12-21T15:06:17.686Z,4.40
2018-12-21T15:07:56.301Z,4.00
2018-12-21T15:09:47.094Z,3.00
2018-12-21T15:11:26.237Z,0.80
2018-12-21T15:13:13.973Z,1.40
2018-12-21T15:14:53.913Z,2.60
2018-12-21T15:16:31.588Z,4.00
2018-12-21T15:18:10.045Z,4.00
2018-12-21T15:19:50.266Z,1.00
2018-12-21T15:21:27.672Z,3.60
2018-12-21T15:23:06.491Z,4.00
2018-12-21T15:24:44.527Z,3.00
2018-12-21T15:26:29.857Z,3.00
2018-12-21T15:28:09.734Z,2.20
2018-12-21T15:29:48.993Z,3.60
2018-12-21T15:31:29.119Z,3.80
2018-12-21T15:33:09.973Z,3.80
2018-12-21T15:34:46.947Z,4.00
2018-12-21T15:36:27.076Z,3.00
2018-12-21T15:38:07.016Z,3.00
2018-12-21T15:39:49.227Z,3.00
2018-12-21T15:41:26.447Z,3.40
2018-12-21T15:43:01.578Z,3.00
2018-12-21T15:44:37.241Z,3.40
2018-12-21T15:46:22.046Z,1.00
2018-12-21T15:47:58.854Z,3.00
2018-12-21T15:49:34.025Z,1.00
2018-12-21T15:51:11.400Z,2.60
2018-12-21T15:55:19.084Z,3.60
2018-12-21T15:56:58.725Z,0.00
2018-12-21T16:00:16.702Z,3.00
2018-12-21T16:01:52.993Z,3.00
2018-12-21T16:03:30.280Z,1.40
2018-12-21T16:05:10.626Z,4.00
2018-12-21T16:06:49.487Z,4.00
2018-12-21T16:08:39.468Z,1.00
2018-12-21T16:10:29.099Z,1.00
2018-12-21T16:12:08.585Z,3.80
2018-12-21T16:13:45.622Z,3.60
2018-12-21T16:15:28.471Z,0.60
2018-12-21T16:17:07.201Z,1.00
2018-12-21T16:18:48.950Z,3.20
2018-12-21T16:20:27.276Z,3.00
2018-12-21T16:22:03.262Z,3.00
2018-12-21T16:23:42.136Z,2.60
2018-12-21T16:25:19.668Z,3.00
2018-12-21T16:26:56.137Z,3.20
2018-12-21T16:28:34.444Z,4.40
2018-12-21T16:30:16.512Z,3.60
2018-12-21T16:31:53.337Z,9.60
2018-12-21T16:33:31.235Z,3.20
2018-12-21T16:35:09.554Z,1.00
2018-12-21T16:36:52.612Z,0.20
2018-12-21T16:38:35.750Z,4.40
2018-12-21T16:40:23.637Z,4.80
2018-12-21T16:42:04.553Z,1.00
2018-12-21T16:43:56.336Z,5.60
2018-12-21T16:45:45.329Z,2.60
2018-12-21T16:47:24.593Z,3.40
2018-12-21T16:49:04.064Z,3.40
2018-12-21T16:50:43.225Z,1.00
2018-12-21T16:52:21.944Z,4.00
2018-12-21T16:54:00.338Z,7.80
2018-12-21T16:57:45.237Z,3.20
2018-12-21T16:59:24.666Z,6.20
2018-12-21T17:01:05.004Z,4.00
2018-12-21T17:02:42.051Z,4.00
2018-12-21T17:04:23.167Z,4.80
2018-12-21T17:05:59.593Z,6.80
2018-12-21T17:07:40.820Z,3.00
2018-12-21T17:09:20.220Z,6.20
2018-12-21T17:10:58.816Z,2.00
2018-12-21T17:12:37.636Z,6.80
2018-12-21T17:14:13.366Z,5.60
2018-12-21T17:15:57.575Z,2.60
2018-12-21T17:17:39.997Z,2.20
2018-12-21T17:19:42.448Z,1.00
2018-12-21T17:21:40.186Z,7.80
2018-12-21T17:23:36.590Z,3.00
2018-12-21T17:25:26.787Z,3.00
2018-12-21T17:27:12.596Z,4.80
2018-12-21T17:32:31.852Z,0.00
2018-12-21T17:36:13.355Z,5.20
2018-12-21T17:38:05.502Z,3.40
2018-12-21T17:39:54.019Z,6.00
2018-12-21T17:41:47.275Z,1.80
2018-12-21T17:43:35.251Z,3.20
2018-12-21T17:47:41.975Z,3.00
2018-12-21T17:49:31.352Z,3.80
2018-12-21T17:51:23.183Z,4.00
2018-12-21T17:55:05.030Z,1.40
2018-12-21T17:56:54.587Z,1.80
2018-12-21T17:58:43.068Z,5.00
2018-12-21T18:00:37.517Z,4.00
2018-12-21T18:02:20.367Z,3.80
2018-12-21T18:04:12.378Z,4.40
2018-12-21T18:06:07.411Z,4.80
2018-12-21T18:07:49.042Z,7.00
2018-12-21T18:09:35.435Z,8.60
2018-12-21T18:11:24.438Z,1.00
2018-12-21T18:13:19.069Z,2.80
2018-12-21T18:15:08.125Z,6.00
2018-12-21T18:16:54.767Z,6.40
2018-12-21T18:18:41.204Z,2.20
2018-12-21T18:20:25.248Z,6.60
2018-12-21T18:22:15.279Z,6.20
2018-12-21T18:23:52.187Z,6.00
2018-12-21T18:25:38.758Z,5.60
2018-12-21T18:27:21.289Z,3.60
2018-12-21T18:29:04.940Z,6.60
2018-12-21T18:30:56.065Z,4.80
2018-12-21T18:32:45.120Z,7.80
2018-12-21T18:34:40.749Z,1.00
2018-12-21T18:36:18.257Z,8.20
2018-12-21T18:38:04.028Z,4.00
2018-12-21T18:39:48.522Z,4.00
2018-12-21T18:41:25.937Z,3.40
2018-12-21T18:43:10.466Z,6.00
2018-12-21T18:44:51.242Z,6.40
2018-12-21T18:46:45.031Z,5.20
2018-12-21T18:48:36.940Z,5.80
2018-12-21T18:50:24.825Z,9.20
2018-12-21T18:52:17.406Z,6.20
2018-12-21T18:53:59.254Z,5.60
2018-12-21T18:55:38.819Z,1.00
2018-12-21T18:57:24.823Z,10.00
2018-12-21T18:59:08.959Z,5.60
2018-12-21T19:00:52.756Z,8.20
2018-12-21T19:02:37.073Z,5.20
2018-12-21T19:04:20.621Z,9.20
2018-12-21T19:06:05.567Z,7.80
2018-12-21T19:07:45.670Z,7.00
2018-12-21T19:09:27.050Z,3.20
2018-12-21T19:11:08.674Z,6.00
2018-12-21T19:12:50.952Z,3.80
2018-12-21T19:14:35.065Z,7.00
2018-12-21T19:16:19.865Z,7.00
2018-12-21T19:17:56.469Z,6.80
2018-12-21T19:19:36.627Z,8.40
2018-12-21T19:21:19.532Z,6.80
2018-12-21T19:23:01.648Z,7.80
2018-12-21T19:24:43.674Z,6.00
2018-12-21T19:26:28.553Z,6.40
2018-12-21T19:28:23.530Z,16.40
2018-12-21T19:30:15.975Z,4.20
2018-12-21T19:31:58.354Z,9.60
2018-12-21T19:33:38.867Z,10.60
2018-12-21T19:35:28.774Z,4.80
2018-12-21T19:37:10.651Z,9.00
2018-12-21T19:38:49.562Z,3.00
2018-12-21T19:40:38.046Z,8.60
2018-12-21T19:42:15.064Z,7.80
2018-12-21T19:43:58.227Z,8.00
2018-12-21T19:45:41.383Z,5.00
2018-12-21T19:47:21.749Z,4.80
2018-12-21T19:49:04.101Z,9.00
2018-12-21T19:52:33.318Z,6.20
2018-12-21T19:54:15.290Z,6.40
2018-12-21T19:56:00.668Z,6.00
2018-12-21T19:57:49.356Z,5.60
2018-12-21T19:59:31.370Z,4.80
2018-12-21T20:01:18.078Z,6.20
2018-12-21T20:02:56.826Z,4.00
2018-12-21T20:04:37.202Z,6.20
2018-12-21T20:06:19.161Z,3.20
2018-12-21T20:07:58.561Z,3.00
2018-12-21T20:09:41.998Z,6.40
2018-12-21T20:17:23.066Z,6.60
2018-12-21T20:19:12.854Z,4.00
2018-12-21T20:20:53.914Z,5.60
2018-12-21T20:22:34.500Z,4.00
2018-12-21T20:24:24.356Z,7.00
2018-12-21T20:26:02.962Z,4.00
2018-12-21T20:27:43.717Z,6.00
2018-12-21T20:29:25.593Z,5.20
2018-12-21T20:31:03.570Z,5.60
2018-12-21T20:32:49.477Z,5.60
2018-12-21T20:34:31.611Z,3.80
2018-12-21T20:36:08.959Z,7.00
2018-12-21T20:37:45.273Z,6.20
2018-12-21T20:39:28.687Z,4.00
2018-12-21T20:41:08.454Z,6.20
2018-12-21T20:42:45.610Z,5.60
2018-12-21T20:44:27.536Z,6.00
2018-12-21T20:46:10.434Z,0.60
2018-12-21T20:47:47.817Z,4.20
2018-12-21T20:49:29.733Z,4.60
2018-12-21T20:51:08.818Z,6.00
2018-12-21T20:52:45.752Z,4.00
2018-12-21T20:54:22.735Z,5.00
2018-12-21T20:56:04.186Z,3.00
2018-12-21T20:57:43.756Z,6.00
2018-12-21T20:59:25.381Z,7.80
2018-12-21T21:01:01.642Z,3.60
2018-12-21T21:02:39.407Z,8.20
2018-12-21T21:04:18.328Z,4.00
2018-12-21T21:05:57.288Z,4.00
2018-12-21T21:07:38.893Z,4.40
2018-12-21T21:09:15.463Z,5.80
2018-12-21T21:10:53.776Z,5.20
2018-12-21T21:12:30.660Z,6.00
2018-12-21T21:14:13.788Z,0.80
2018-12-21T21:15:51.951Z,3.40
2018-12-21T21:17:31.772Z,8.60
2018-12-21T21:19:09.346Z,6.80
2018-12-21T21:20:47.516Z,6.80
2018-12-21T21:24:13.564Z,7.00
2018-12-21T21:25:58.467Z,6.00
2018-12-21T21:27:42.038Z,4.00
2018-12-21T21:29:27.719Z,5.20
2018-12-21T21:31:06.729Z,8.20
2018-12-21T21:32:50.562Z,5.80
2018-12-21T21:34:37.376Z,8.40
2018-12-21T21:36:21.541Z,2.60
2018-12-21T21:37:58.569Z,7.00
2018-12-21T21:39:40.456Z,4.00
2018-12-21T21:41:18.953Z,9.00
2018-12-21T21:42:58.006Z,9.00
2018-12-21T21:44:36.590Z,7.00
2018-12-21T21:46:15.767Z,6.00
2018-12-21T21:47:56.331Z,6.60
2018-12-21T21:49:58.510Z,8.60
2018-12-21T21:51:48.300Z,5.20
2018-12-21T21:53:45.723Z,6.20
2018-12-21T21:55:32.875Z,6.80
2018-12-21T21:57:12.251Z,4.40
2018-12-21T21:58:49.074Z,9.60
2018-12-21T22:00:25.420Z,4.00
2018-12-21T22:02:02.357Z,5.20
2018-12-21T22:03:43.637Z,8.60
2018-12-21T22:05:21.717Z,8.20
2018-12-21T22:06:58.044Z,10.00
2018-12-21T22:08:39.902Z,2.60
2018-12-21T22:10:17.238Z,10.00
2018-12-21T22:12:00.183Z,8.20
2018-12-21T22:13:37.825Z,6.60
2018-12-21T22:15:23.657Z,6.40
2018-12-21T22:17:00.724Z,6.60
2018-12-21T22:18:40.939Z,7.00
2018-12-21T22:20:20.424Z,8.20